createdAt,value
2019-02-04T00:00:35.135Z,1.73
2019-02-04T00:03:13.419Z,1.70
2019-02-04T00:05:45.383Z,1.69
2019-02-04T00:08:17.231Z,1.75
2019-02-04T00:10:49.205Z,1.66
2019-02-04T00:13:21.096Z,1.64
2019-02-04T00:15:53.067Z,1.62
2019-02-04T00:18:24.892Z,1.63
2019-02-04T00:20:57.123Z,1.64
2019-02-04T00:23:28.964Z,1.57
2019-02-04T00:26:00.817Z,1.57
2019-02-04T00:28:32.655Z,1.48
2019-02-04T00:31:05.226Z,1.58
2019-02-04T00:33:37.250Z,1.53
2019-02-04T00:36:09.035Z,1.56
2019-02-04T00:38:40.820Z,1.49
2019-02-04T00:41:12.755Z,1.43
2019-02-04T00:43:46.607Z,1.41
2019-02-04T00:46:18.690Z,1.45
2019-02-04T00:48:50.513Z,1.33
2019-02-04T00:51:22.301Z,1.32
2019-02-04T00:53:54.296Z,1.36
2019-02-04T00:56:26.151Z,1.37
2019-02-04T00:58:57.996Z,1.22
2019-02-04T01:01:29.834Z,1.22
2019-02-04T01:04:02.568Z,1.21
2019-02-04T01:06:34.533Z,1.18
2019-02-04T01:09:10.255Z,1.14
2019-02-04T01:11:42.198Z,1.24
2019-02-04T01:14:14.130Z,1.21
2019-02-04T01:16:45.932Z,1.25
2019-02-04T01:19:17.803Z,1.18
2019-02-04T01:21:49.722Z,1.22
2019-02-04T01:24:21.504Z,1.15
2019-02-04T01:26:53.400Z,1.04
2019-02-04T01:29:25.212Z,0.92
2019-02-04T01:31:57.085Z,0.91
2019-02-04T01:34:28.962Z,0.88
2019-02-04T01:37:00.723Z,0.90
2019-02-04T01:39:32.518Z,0.80
2019-02-04T01:42:04.392Z,0.76
2019-02-04T01:44:36.215Z,0.86
2019-02-04T01:47:14.472Z,0.94
2019-02-04T01:49:41.584Z,0.94
2019-02-04T01:52:13.435Z,0.78
2019-02-04T01:54:45.423Z,0.88
2019-02-04T01:57:17.462Z,0.72
2019-02-04T01:59:49.336Z,0.67
2019-02-04T02:02:21.122Z,0.66
2019-02-04T02:04:56.666Z,0.51
2019-02-04T02:07:28.416Z,0.38
2019-02-04T02:10:00.338Z,0.15
2019-02-04T02:12:35.256Z,0.04
2019-02-04T02:15:08.018Z,-0.12
2019-02-04T02:17:39.834Z,-0.09
2019-02-04T02:20:15.178Z,-0.21
2019-02-04T02:22:47.222Z,-0.23
2019-02-04T02:25:19.099Z,-0.36
2019-02-04T02:27:50.998Z,-0.23
2019-02-04T02:30:30.564Z,-0.30
2019-02-04T02:33:02.456Z,-0.42
2019-02-04T02:35:34.354Z,-0.50
2019-02-04T02:38:07.157Z,-0.49
2019-02-04T02:40:38.976Z,-0.59
2019-02-04T02:43:11.736Z,-0.61
2019-02-04T02:45:43.854Z,-0.63
2019-02-04T02:48:15.694Z,-0.67
2019-02-04T02:50:47.574Z,-0.76
2019-02-04T02:53:19.378Z,-0.86
2019-02-04T02:55:51.234Z,-0.74
2019-02-04T02:58:23.062Z,-0.88
2019-02-04T03:00:54.854Z,-0.97
2019-02-04T03:03:26.775Z,-0.93
2019-02-04T03:05:58.975Z,-0.84
2019-02-04T03:08:30.810Z,-1.04
2019-02-04T03:11:02.753Z,-1.15
2019-02-04T03:13:34.552Z,-1.29
2019-02-04T03:16:06.545Z,-1.35
2019-02-04T03:18:38.397Z,-1.30
2019-02-04T03:21:10.274Z,-1.28
2019-02-04T03:23:42.140Z,-1.27
2019-02-04T03:26:13.978Z,-1.29
2019-02-04T03:28:45.814Z,-1.30
2019-02-04T03:31:17.619Z,-1.34
2019-02-04T03:33:49.395Z,-1.24
2019-02-04T03:36:21.196Z,-1.28
2019-02-04T03:38:52.991Z,-1.21
2019-02-04T03:41:24.878Z,-1.17
2019-02-04T03:43:57.303Z,-1.13
2019-02-04T03:46:29.238Z,-1.13
2019-02-04T03:49:01.535Z,-1.15
2019-02-04T03:51:33.428Z,-1.11
2019-02-04T03:54:22.791Z,-1.23
2019-02-04T04:00:18.380Z,-1.31
2019-02-04T04:02:50.615Z,-1.24
2019-02-04T04:05:23.261Z,-1.28
2019-02-04T04:07:55.284Z,-1.41
2019-02-04T04:10:27.402Z,-1.40
2019-02-04T04:13:00.981Z,-1.43
2019-02-04T04:15:33.305Z,-1.49
2019-02-04T04:18:16.130Z,-1.57
2019-02-04T06:32:34.567Z,0.59
2019-02-04T06:35:07.032Z,0.55
2019-02-04T06:37:39.032Z,0.56
2019-02-04T06:40:13.078Z,0.61
2019-02-04T06:42:45.012Z,0.61
2019-02-04T06:45:17.351Z,0.73
2019-02-04T06:47:49.616Z,0.82
2019-02-04T06:50:21.872Z,0.92
2019-02-04T06:52:56.057Z,0.97
2019-02-04T06:55:31.565Z,1.05
2019-02-04T06:58:05.146Z,1.09
2019-02-04T07:00:38.626Z,1.21
2019-02-04T07:03:10.436Z,1.26
2019-02-04T07:05:43.957Z,1.32
2019-02-04T07:08:19.212Z,1.33
2019-02-04T07:10:51.048Z,1.32
2019-02-04T07:13:23.278Z,1.41
2019-02-04T07:15:55.281Z,1.47
2019-02-04T07:18:28.758Z,1.48
2019-02-04T07:21:00.733Z,1.52
2019-02-04T07:23:32.559Z,1.53
2019-02-04T07:26:04.728Z,1.56
2019-02-04T07:28:36.506Z,1.63
2019-02-04T07:31:08.343Z,1.75
2019-02-04T07:33:40.178Z,1.75
2019-02-04T07:36:11.951Z,1.68
2019-02-04T07:38:44.272Z,1.67
2019-02-04T07:41:16.084Z,1.72
2019-02-04T07:43:47.891Z,1.81
2019-02-04T07:46:19.689Z,1.83
2019-02-04T07:48:52.609Z,1.83
2019-02-04T07:51:24.430Z,1.86
2019-02-04T07:53:57.727Z,1.97
2019-02-04T07:56:29.587Z,2.07
2019-02-04T07:59:01.372Z,2.09
2019-02-04T08:01:33.251Z,2.13
2019-02-04T08:04:05.622Z,2.20
2019-02-04T08:06:37.468Z,2.31
2019-02-04T08:09:11.158Z,2.49
2019-02-04T08:11:42.979Z,2.61
2019-02-04T08:14:15.091Z,2.45
2019-02-04T08:16:46.965Z,2.47
2019-02-04T08:19:18.758Z,2.50
2019-02-04T08:21:50.567Z,2.56
2019-02-04T08:24:22.487Z,2.55
2019-02-04T08:26:57.876Z,2.44
2019-02-04T08:29:29.869Z,2.62
2019-02-04T08:32:01.912Z,2.68
2019-02-04T08:34:33.815Z,2.76
2019-02-04T08:37:05.666Z,2.86
2019-02-04T08:39:37.513Z,2.93
2019-02-04T08:42:09.331Z,2.86
2019-02-04T08:44:41.456Z,2.88
2019-02-04T08:47:22.604Z,3.14
2019-02-04T08:49:57.750Z,3.17
2019-02-04T08:52:20.771Z,3.34
2019-02-04T08:54:54.984Z,3.31
2019-02-04T08:57:26.851Z,3.09
2019-02-04T09:00:00.450Z,3.04
2019-02-04T09:02:34.299Z,2.97
2019-02-04T09:05:08.215Z,3.22
2019-02-04T09:07:43.322Z,3.35
2019-02-04T09:10:31.572Z,3.52
2019-02-04T09:13:04.082Z,3.27
2019-02-04T09:15:36.477Z,3.50
2019-02-04T09:18:08.281Z,3.30
2019-02-04T09:20:40.054Z,3.41
2019-02-04T09:23:11.959Z,3.56
2019-02-04T09:25:43.763Z,3.83
2019-02-04T09:28:15.564Z,3.84
2019-02-04T09:30:47.345Z,3.93
2019-02-04T09:33:19.283Z,3.72
2019-02-04T09:35:51.245Z,3.69
2019-02-04T09:38:26.754Z,3.58
2019-02-04T09:40:58.862Z,3.54
2019-02-04T09:43:30.925Z,3.87
2019-02-04T09:46:04.678Z,4.05
2019-02-04T09:48:36.986Z,4.02
2019-02-04T09:51:08.874Z,4.35
2019-02-04T09:53:40.757Z,3.91
2019-02-04T09:56:12.734Z,3.66
2019-02-04T09:58:46.601Z,3.44
2019-02-04T10:01:21.792Z,3.68
2019-02-04T10:03:53.809Z,4.22
2019-02-04T10:06:25.734Z,4.36
2019-02-04T10:09:00.408Z,5.07
2019-02-04T10:11:34.454Z,5.48
2019-02-04T10:14:06.574Z,5.39
2019-02-04T10:16:38.456Z,4.47
2019-02-04T10:19:12.521Z,4.40
2019-02-04T10:21:44.349Z,4.23
2019-02-04T10:24:16.123Z,4.13
2019-02-04T10:26:48.078Z,3.86
2019-02-04T10:29:20.032Z,3.96
2019-02-04T10:31:51.862Z,4.37
2019-02-04T10:34:24.241Z,4.61
2019-02-04T10:36:56.105Z,4.97
2019-02-04T10:39:29.343Z,4.73
2019-02-04T10:42:02.530Z,4.88
2019-02-04T10:44:41.238Z,4.73
2019-02-04T10:47:15.393Z,4.61
2019-02-04T10:49:47.305Z,4.44
2019-02-04T10:52:19.273Z,4.27
2019-02-04T10:54:52.606Z,4.19
2019-02-04T10:57:25.547Z,3.94
2019-02-04T10:59:57.539Z,3.86
2019-02-04T11:02:29.708Z,3.73
2019-02-04T11:05:01.666Z,3.54
2019-02-04T11:07:33.885Z,3.37
2019-02-04T11:10:08.666Z,3.49
2019-02-04T11:12:40.617Z,3.49
2019-02-04T11:15:14.681Z,3.63
2019-02-04T11:19:09.035Z,4.26
2019-02-04T11:21:44.954Z,4.53
2019-02-04T11:24:27.826Z,4.76
2019-02-04T11:27:00.206Z,4.84
2019-02-04T11:29:35.424Z,5.27
2019-02-04T11:32:25.121Z,5.40
2019-02-04T11:34:57.288Z,5.06
2019-02-04T11:37:30.843Z,4.77
2019-02-04T11:40:02.919Z,4.44
2019-02-04T11:42:36.606Z,4.11
2019-02-04T11:45:14.396Z,3.84
2019-02-04T11:47:47.244Z,3.79
2019-02-04T11:50:22.918Z,3.72
2019-02-04T11:52:56.382Z,3.80
2019-02-04T11:55:31.789Z,3.82
2019-02-04T11:58:08.064Z,3.74
2019-02-04T12:00:41.881Z,3.57
2019-02-04T12:03:17.868Z,3.34
2019-02-04T12:05:54.719Z,3.37
2019-02-04T12:08:32.265Z,3.24
2019-02-04T12:11:21.528Z,3.16
2019-02-04T12:14:02.295Z,3.20
2019-02-04T12:16:35.983Z,3.16
2019-02-04T12:19:52.765Z,3.20
2019-02-04T12:22:49.929Z,3.24
2019-02-04T12:25:24.981Z,3.23
2019-02-04T12:27:58.097Z,3.26
2019-02-04T12:30:35.703Z,3.25
2019-02-04T12:33:22.431Z,3.16
2019-02-04T12:35:58.627Z,3.13
2019-02-04T12:38:31.217Z,3.11
2019-02-04T12:41:03.557Z,3.13
2019-02-04T12:43:35.728Z,3.07
2019-02-04T12:46:08.233Z,3.07
2019-02-04T12:48:40.519Z,3.03
2019-02-04T12:51:12.530Z,3.09
2019-02-04T12:53:44.383Z,3.00
2019-02-04T12:56:16.195Z,2.97
2019-02-04T12:58:55.258Z,3.00
2019-02-04T13:01:21.461Z,3.00
2019-02-04T13:03:53.366Z,3.00
2019-02-04T13:06:25.267Z,2.97
2019-02-04T13:08:57.155Z,2.96
2019-02-04T13:11:28.964Z,2.98
2019-02-04T13:14:00.871Z,2.93
2019-02-04T13:16:32.733Z,2.90
2019-02-04T13:19:04.725Z,2.88
2019-02-04T13:21:44.979Z,2.81
2019-02-04T13:24:10.572Z,2.86
2019-02-04T13:26:44.857Z,2.84
2019-02-04T13:29:16.933Z,2.82
2019-02-04T13:31:49.009Z,2.77
2019-02-04T13:34:21.140Z,2.75
2019-02-04T13:36:53.506Z,2.72
2019-02-04T13:39:27.061Z,2.72
2019-02-04T13:42:00.819Z,2.71
2019-02-04T13:44:33.919Z,2.73
2019-02-04T13:47:08.232Z,2.66
2019-02-04T13:49:48.808Z,2.64
2019-02-04T13:52:22.780Z,2.59
2019-02-04T13:54:54.728Z,2.57
2019-02-04T13:57:29.404Z,2.52
2019-02-04T14:00:09.052Z,2.53
2019-02-04T14:02:42.808Z,2.54
2019-02-04T14:05:15.362Z,2.54
2019-02-04T14:07:59.680Z,2.49
2019-02-04T14:10:40.211Z,2.48
2019-02-04T14:13:14.642Z,2.46
2019-02-04T14:15:47.412Z,2.43
2019-02-04T14:18:26.295Z,2.40
2019-02-04T14:20:56.961Z,2.42
2019-02-04T14:23:30.155Z,2.43
2019-02-04T14:26:02.636Z,2.40
2019-02-04T14:28:36.499Z,2.39
2019-02-04T14:31:11.119Z,2.34
2019-02-04T14:33:46.208Z,2.31
2019-02-04T14:36:20.778Z,2.28
2019-02-04T14:38:54.881Z,2.21
2019-02-04T14:41:30.328Z,2.18
2019-02-04T14:44:29.405Z,2.12
2019-02-04T14:47:39.126Z,2.09
2019-02-04T14:51:03.623Z,2.10
2019-02-04T14:54:40.233Z,2.00
2019-02-04T14:57:40.953Z,1.94
2019-02-04T15:01:07.388Z,1.87
2019-02-04T15:04:18.949Z,1.82
2019-02-04T15:07:55.223Z,1.73
2019-02-04T15:11:16.734Z,1.66
2019-02-04T15:14:55.166Z,1.66
2019-02-04T15:18:12.490Z,1.46
2019-02-04T15:21:28.898Z,1.40
2019-02-04T15:24:45.734Z,1.38
2019-02-04T15:28:02.367Z,1.27
2019-02-04T15:31:12.517Z,1.16
2019-02-04T15:34:27.672Z,1.10
2019-02-04T15:38:16.551Z,1.04
2019-02-04T15:41:19.970Z,1.08
2019-02-04T15:44:36.954Z,0.95
2019-02-04T15:48:02.832Z,0.86
2019-02-04T15:51:32.660Z,0.80
2019-02-04T15:54:10.708Z,0.70
2019-02-04T15:56:42.641Z,0.63
2019-02-04T15:59:17.414Z,0.55
2019-02-04T16:02:04.964Z,0.58
2019-02-04T16:04:40.851Z,0.47
2019-02-04T16:07:17.677Z,0.39
2019-02-04T16:09:57.958Z,0.41
2019-02-04T16:12:38.475Z,0.35
2019-02-04T16:15:20.349Z,0.36
2019-02-04T16:17:55.197Z,0.30
2019-02-04T16:20:27.275Z,0.29
2019-02-04T16:22:59.607Z,0.27
2019-02-04T16:25:42.251Z,0.25
2019-02-04T16:28:25.949Z,0.17
2019-02-04T16:30:58.795Z,0.20
2019-02-04T16:33:31.707Z,0.18
2019-02-04T16:36:04.041Z,0.19
2019-02-04T16:38:39.595Z,0.23
2019-02-04T16:41:11.709Z,0.18
2019-02-04T16:43:46.595Z,0.09
2019-02-04T16:46:18.759Z,0.04
2019-02-04T16:48:55.374Z,0.05
2019-02-04T16:51:28.417Z,0.12
2019-02-04T16:54:01.879Z,0.13
2019-02-04T16:56:35.795Z,0.12
2019-02-04T16:59:07.767Z,-0.02
2019-02-04T17:01:39.925Z,-0.06
2019-02-04T17:04:13.992Z,-0.09
2019-02-04T17:06:46.659Z,-0.11
2019-02-04T17:09:22.779Z,-0.17
2019-02-04T17:11:56.816Z,-0.20
2019-02-04T17:14:30.575Z,-0.20
2019-02-04T17:17:04.080Z,-0.29
2019-02-04T17:19:36.331Z,-0.35
2019-02-04T17:22:08.359Z,-0.40
2019-02-04T17:24:40.473Z,-0.39
2019-02-04T17:27:12.551Z,-0.39
2019-02-04T17:29:44.564Z,-0.31
2019-02-04T17:32:17.844Z,-0.38
2019-02-04T17:34:51.201Z,-0.43
2019-02-04T17:37:23.131Z,-0.49
2019-02-04T17:39:55.021Z,-0.50
2019-02-04T17:42:27.017Z,-0.54
2019-02-04T17:45:00.593Z,-0.56
2019-02-04T17:47:32.845Z,-0.53
2019-02-04T17:50:08.397Z,-0.56
2019-02-04T17:52:40.411Z,-0.47
2019-02-04T17:55:17.329Z,-0.53
2019-02-04T17:57:49.381Z,-0.58
2019-02-04T18:00:44.719Z,-0.53
2019-02-04T18:03:17.051Z,-0.47
2019-02-04T18:05:48.880Z,-0.54
2019-02-04T18:08:20.853Z,-0.62
2019-02-04T18:10:52.853Z,-0.64
2019-02-04T18:13:24.845Z,-0.67
2019-02-04T18:15:56.681Z,-0.67
2019-02-04T18:18:34.482Z,-0.67
2019-02-04T18:21:08.050Z,-0.62
2019-02-04T18:23:45.990Z,-0.67
2019-02-04T18:26:16.473Z,-0.67
2019-02-04T18:28:48.743Z,-0.68
2019-02-04T18:31:22.185Z,-0.76
2019-02-04T18:33:56.706Z,-0.77
2019-02-04T18:36:33.463Z,-0.68
2019-02-04T18:39:11.820Z,-0.73
2019-02-04T18:41:44.958Z,-0.80
2019-02-04T18:44:20.021Z,-0.83
2019-02-04T18:46:53.266Z,-0.90
2019-02-04T18:49:30.375Z,-0.94
2019-02-04T18:52:05.489Z,-0.98
2019-02-04T18:54:37.903Z,-1.04
2019-02-04T18:57:09.954Z,-1.06
2019-02-04T18:59:42.186Z,-1.03
2019-02-04T19:02:17.080Z,-1.08
2019-02-04T19:04:49.214Z,-1.04
2019-02-04T19:07:21.203Z,-1.06
2019-02-04T19:09:56.110Z,-1.07
2019-02-04T19:12:27.944Z,-1.06
2019-02-04T19:15:03.279Z,-1.05
2019-02-04T19:17:35.826Z,-1.09
2019-02-04T19:20:11.268Z,-1.11
2019-02-04T19:22:44.735Z,-1.13
2019-02-04T19:25:19.030Z,-1.19
2019-02-04T19:27:51.586Z,-1.21
2019-02-04T19:30:46.507Z,-1.17
2019-02-04T19:33:21.391Z,-1.18
2019-02-04T19:35:53.548Z,-1.21
2019-02-04T19:38:25.456Z,-1.21
2019-02-04T19:40:58.032Z,-1.17
2019-02-04T19:43:33.459Z,-1.14
2019-02-04T19:46:06.268Z,-1.05
2019-02-04T19:48:38.127Z,-1.11
2019-02-04T19:51:12.034Z,-1.12
2019-02-04T19:53:43.951Z,-1.10
2019-02-04T19:56:15.774Z,-0.99
2019-02-04T19:58:48.161Z,-0.94
2019-02-04T20:01:20.547Z,-0.91
2019-02-04T20:03:52.474Z,-0.92
2019-02-04T20:06:24.488Z,-0.88
2019-02-04T20:08:56.313Z,-0.81
2019-02-04T20:11:28.282Z,-0.76
2019-02-04T20:14:00.189Z,-0.76
2019-02-04T20:16:41.776Z,-0.74
2019-02-04T20:19:16.830Z,-0.56
2019-02-04T20:21:49.070Z,-0.58
2019-02-04T20:24:32.637Z,-0.57
2019-02-04T20:26:55.133Z,-0.55
2019-02-04T20:29:27.291Z,-0.50
2019-02-04T20:31:59.434Z,-0.53
2019-02-04T20:34:31.420Z,-0.63
2019-02-04T20:37:03.445Z,-0.53
2019-02-04T20:39:35.719Z,-0.54
2019-02-04T20:42:07.761Z,-0.65
2019-02-04T20:44:39.768Z,-0.65
2019-02-04T20:47:12.169Z,-0.62
2019-02-04T20:49:44.324Z,-0.66
2019-02-04T20:52:16.994Z,-0.68
2019-02-04T20:54:48.857Z,-0.79
2019-02-04T20:57:20.839Z,-0.84
2019-02-04T20:59:55.331Z,-0.89
2019-02-04T21:02:28.277Z,-0.92
2019-02-04T21:05:01.518Z,-0.85
2019-02-04T21:07:34.700Z,-0.88
2019-02-04T21:10:11.025Z,-0.86
2019-02-04T21:12:43.111Z,-0.85
2019-02-04T21:15:21.666Z,-0.84
2019-02-04T21:17:53.690Z,-0.82
2019-02-04T21:20:27.107Z,-0.88
2019-02-04T21:22:59.005Z,-0.90
2019-02-04T21:25:31.018Z,-0.93
2019-02-04T21:28:02.915Z,-1.34
2019-02-04T21:30:38.730Z,-0.95
2019-02-04T21:33:10.777Z,-1.05
2019-02-04T21:35:44.069Z,-1.07
2019-02-04T21:38:16.589Z,-1.11
2019-02-04T21:40:48.839Z,-1.10
2019-02-04T21:43:28.379Z,-1.04
2019-02-04T21:46:00.405Z,-0.91
2019-02-04T21:48:33.835Z,-0.81
2019-02-04T21:51:06.111Z,-0.92
2019-02-04T21:53:38.412Z,-0.94
2019-02-04T21:56:10.373Z,-0.98
2019-02-04T21:58:44.072Z,-0.88
2019-02-04T22:01:16.573Z,-0.78
2019-02-04T22:03:48.649Z,-0.74
2019-02-04T22:06:20.653Z,-0.71
2019-02-04T22:08:52.628Z,-0.74
2019-02-04T22:11:24.873Z,-0.79
2019-02-04T22:13:57.085Z,-0.77
2019-02-04T22:16:29.221Z,-0.66
2019-02-04T22:19:01.801Z,-0.66
2019-02-04T22:21:33.993Z,-0.73
2019-02-04T22:24:07.314Z,-0.66
2019-02-04T22:30:34.390Z,-0.91
2019-02-04T22:33:25.866Z,-0.83
2019-02-04T22:40:38.116Z,-0.91
2019-02-04T22:43:10.460Z,-0.80
2019-02-04T22:45:45.815Z,-0.82
2019-02-04T22:48:18.186Z,-0.80
2019-02-04T22:50:50.472Z,-0.79
2019-02-04T22:56:43.126Z,-0.69
2019-02-04T22:59:15.068Z,-0.77
2019-02-04T23:01:54.409Z,-0.76
2019-02-04T23:04:28.425Z,-0.81
2019-02-04T23:07:00.455Z,-0.82
2019-02-04T23:09:32.424Z,-0.86
2019-02-04T23:12:05.100Z,-0.80
2019-02-04T23:14:37.019Z,-0.70
2019-02-04T23:17:09.232Z,-0.79
2019-02-04T23:19:41.167Z,-0.92
2019-02-04T23:22:13.213Z,-0.90
2019-02-04T23:24:45.262Z,-0.76
2019-02-04T23:27:17.249Z,-0.66
2019-02-04T23:29:50.112Z,-0.65
2019-02-04T23:32:22.192Z,-0.77
2019-02-04T23:34:54.215Z,-0.78
2019-02-04T23:37:26.292Z,-0.68
2019-02-04T23:39:59.673Z,-0.68
2019-02-04T23:42:32.037Z,-0.66
2019-02-04T23:45:08.132Z,-0.69
2019-02-04T23:47:40.220Z,-0.65
2019-02-04T23:50:14.436Z,-0.65
2019-02-04T23:52:46.593Z,-0.69
2019-02-04T23:55:18.590Z,-0.65
2019-02-04T23:57:50.528Z,-0.62
